Bacău, România

01:48 AM EET on ianuarie 22, 2017 (GMT +0200)
Bacau | | Change Station

Elev 607 ft 46.52 °N, 26.91 °E | Updated 18 minutes ago

Cer acoperit
Cer acoperit
36 °F
Feels Like 29 °F
N
8
Vânt variabil Vânt from NNV

astăzi
High -- | Low -- °F
--% Chance of Precip.
Ieri
High -- | Low -- °F
Precip. -- inch
Presiunea 30.48 inch
Vizibilitatea 6.2 mile
Nori Cer acoperit 2300 ft
Vânt rece 29 °F
Punctul de rouă 30 °F
Umiditatea 81%
Precipitaţii 0.00 inch
Adâncimea zăpezii Not available.
7:46 AM 5:01 PM
Semilună în descreştere, 31% visible
METAR LRBC 212330Z 33007KT 9999 OVC023 02/M01 Q1032 RMK R16/09//95
Presiunea 30.48 inch
Vizibilitatea 6.2 mile
Nori Cer acoperit 2300 ft
Vânt rece 29 °F
Punctul de rouă 30 °F
Umiditatea 81%
Precipitaţii 0.00 inch
Adâncimea zăpezii Not available.
7:46 AM 5:01 PM
Semilună în descreştere, 31% visible
METAR LRBC 212330Z 33007KT 9999 OVC023 02/M01 Q1032 RMK R16/09//95

Get Your Daily Forecast Email!

Thanks for signing up!

Be on the lookout for a verification email in your inbox.

You'll start receiving the daily forecast at 8 AM.

×

10-Day Weather Forecast

×

Almanac

Astronomie

Jan. 22, 2017 Răsărit Apus
Timpul Actual
Crepusculul Civil
Crepusculul nautic
Răsărit Astronomic
Luna
Durata zilei lumină
Lungimea zilei
Tomorrow will be .
, % of the Moon is Illuminated

Extremele de azi

Country Highs Country Lows

Community

WunderPhotos

Upload Photos

1,962,540 photos uploaded!

WunderBlog® & News

Nearby

Calitatea aerului

  Calitatea aerului Index de calitate a aerului Poluat
Not available.

Adâncimea zapezii

Station Depth Elevation

Earthquake Activity

Oraş Distance Mag. Time & Date
Minimum magnitude displayed is 2.5.

Coastal Water Temperatures

Locul Temperatura

Stations

Nearby Weather Stations

Locaţia staţiei Temp Vânt rece Punctul de rouă Umiditatea Vânt Precip. Elev Actualizare Type